Time;durP1;ratioP1;P1;durP2;ratioP2;P2;SDS_P1;SDS_P2;PMS_P1;PMS_P2;Temp;Humidity;BMP_temperature;BMP_pressure;BME280_temperature;BME280_humidity;BME280_pressure;Samples;Min_cycle;Max_cycle;Signal;HPM_P1;HPM_P2
2021/07/04 00:00:00;;;;;;;7.40;4.63;;;;;;;15.08;69.94;99536.37;255317;1104;114693;-66
2021/07/04 00:05:07;;;;;;;5.93;5.33;;;;;;;15.19;70.27;99526.44;255676;1104;116726;-67
2021/07/04 00:10:15;;;;;;;5.25;4.25;;;;;;;15.31;70.70;99523.45;256249;1104;114642;-66
2021/07/04 00:15:22;;;;;;;5.10;4.60;;;;;;;15.33;70.47;99535.53;256599;1104;114757;-68
2021/07/04 00:20:26;;;;;;;4.53;4.23;;;;;;;15.46;71.20;99528.81;257318;1104;115188;-68
2021/07/04 00:25:30;;;;;;;8.08;5.70;;;;;;;15.56;71.15;99522.63;257290;1104;115781;-68
2021/07/04 00:30:34;;;;;;;5.90;5.40;;;;;;;15.73;71.88;99523.13;257322;1104;114499;-69
2021/07/04 00:35:38;;;;;;;6.17;5.57;;;;;;;15.87;71.37;99526.06;255459;1100;115272;-68
2021/07/04 00:40:43;;;;;;;8.43;6.75;;;;;;;15.97;71.66;99520.63;254661;1104;115437;-68
2021/07/04 00:45:46;;;;;;;8.05;7.35;;;;;;;16.05;71.41;99518.17;256070;1104;114895;-68
2021/07/04 00:50:50;;;;;;;8.88;7.10;;;;;;;16.12;71.79;99521.38;255616;1098;115044;-68
2021/07/04 00:55:54;;;;;;;14.83;8.30;;;;;;;16.21;71.39;99518.09;254537;1104;115386;-68
2021/07/04 01:00:57;;;;;;;11.20;8.35;;;;;;;16.20;71.71;99505.75;254751;1100;115684;-67
2021/07/04 01:06:00;;;;;;;14.55;9.35;;;;;;;16.13;71.92;99509.54;254483;1104;115340;-69
2021/07/04 01:11:05;;;;;;;12.43;9.05;;;;;;;16.16;72.36;99500.92;255884;1102;116223;-69
2021/07/04 01:16:08;;;;;;;21.60;8.48;;;;;;;16.24;72.40;99499.52;254361;1104;116511;-69
2021/07/04 01:21:15;;;;;;;8.70;7.90;;;;;;;16.27;72.67;99495.47;254517;1104;115812;-69
2021/07/04 01:26:19;;;;;;;11.03;7.15;;;;;;;16.29;72.56;99479.86;254278;1099;114976;-66
2021/07/04 01:31:23;;;;;;;12.73;8.60;;;;;;;16.31;72.73;99478.50;255046;1104;115559;-67
2021/07/04 01:36:27;;;;;;;11.78;9.28;;;;;;;16.39;72.71;99472.55;255100;1104;116967;-67
2021/07/04 01:41:33;;;;;;;11.43;10.08;;;;;;;16.47;73.08;99479.22;255240;1104;116185;-67
2021/07/04 01:46:37;;;;;;;11.00;8.15;;;;;;;16.56;73.06;99476.72;254531;1099;115517;-68
2021/07/04 01:51:41;;;;;;;11.28;10.00;;;;;;;16.63;73.17;99475.33;255326;1104;115694;-67
2021/07/04 01:56:45;;;;;;;11.07;9.50;;;;;;;16.69;72.90;99473.44;256327;1104;115926;-68
2021/07/04 02:01:48;;;;;;;10.03;7.50;;;;;;;16.75;72.89;99477.70;255128;1104;115189;-67
2021/07/04 02:06:52;;;;;;;10.80;9.70;;;;;;;16.81;73.02;99471.20;254195;1104;115817;-68
2021/07/04 02:11:55;;;;;;;12.65;9.40;;;;;;;16.86;72.79;99478.41;255907;1103;115588;-68
2021/07/04 02:16:58;;;;;;;14.43;10.45;;;;;;;16.88;73.01;99474.34;256408;1104;115583;-69
2021/07/04 02:22:04;;;;;;;12.20;9.38;;;;;;;16.91;72.91;99478.36;256131;1104;115779;-67
2021/07/04 02:27:10;;;;;;;12.00;8.48;;;;;;;16.88;72.67;99479.73;257188;1104;114839;-70
2021/07/04 02:32:13;;;;;;;;;;;;;;;16.95;72.89;99485.60;257374;1104;115753;-68
2021/07/04 02:37:17;;;;;;;12.08;9.60;;;;;;;16.92;72.35;99491.55;257165;1104;103091;-66
2021/07/04 02:42:21;;;;;;;14.35;10.38;;;;;;;16.89;72.26;99492.11;256478;1104;116887;-67
2021/07/04 02:47:26;;;;;;;11.05;8.35;;;;;;;16.80;72.74;99493.81;256754;1104;117544;-67
2021/07/04 02:52:29;;;;;;;20.23;10.07;;;;;;;16.77;72.68;99487.11;254455;1104;116479;-67
2021/07/04 02:57:32;;;;;;;12.95;9.30;;;;;;;16.79;72.70;99493.02;256243;1104;116556;-67
2021/07/04 03:02:36;;;;;;;14.58;9.20;;;;;;;16.84;73.04;99495.64;255208;1104;116221;-66
2021/07/04 03:07:40;;;;;;;13.83;10.05;;;;;;;16.91;73.06;99497.21;254186;1104;115741;-67
2021/07/04 03:12:44;;;;;;;16.48;10.23;;;;;;;16.81;72.78;99490.81;254182;1104;115860;-67
2021/07/04 03:17:48;;;;;;;13.13;8.60;;;;;;;16.72;72.92;99502.48;254459;1104;117752;-68
2021/07/04 03:22:52;;;;;;;16.53;10.38;;;;;;;16.69;73.16;99503.04;254179;1104;115113;-67
2021/07/04 03:27:55;;;;;;;14.18;9.45;;;;;;;16.77;73.38;99499.76;254813;1104;115828;-67
2021/07/04 03:32:59;;;;;;;10.40;8.50;;;;;;;16.88;73.41;99516.62;254197;1104;115578;-67
2021/07/04 03:38:03;;;;;;;12.23;9.68;;;;;;;16.89;73.27;99515.53;255063;1104;115050;-66
2021/07/04 03:43:06;;;;;;;13.77;8.97;;;;;;;16.92;73.34;99514.97;254818;1104;115906;-67
2021/07/04 03:48:09;;;;;;;12.33;8.98;;;;;;;16.97;73.45;99514.94;255474;1104;115718;-67
2021/07/04 03:53:14;;;;;;;13.30;8.80;;;;;;;16.94;73.21;99512.80;256246;1104;115318;-67
2021/07/04 03:58:17;;;;;;;11.08;9.28;;;;;;;16.99;73.14;99518.95;255056;1104;115571;-67
2021/07/04 04:03:20;;;;;;;10.85;8.58;;;;;;;17.08;73.18;99528.05;256161;1104;115972;-67
2021/07/04 04:08:24;;;;;;;17.98;7.35;;;;;;;17.06;73.21;99535.61;256361;1104;114829;-67
2021/07/04 04:13:28;;;;;;;16.20;8.43;;;;;;;16.95;72.70;99535.95;257365;1104;115622;-67
2021/07/04 04:18:37;;;;;;;12.50;8.48;;;;;;;16.91;73.25;99529.52;255839;1104;115370;-67
2021/07/04 04:23:42;;;;;;;14.48;10.03;;;;;;;16.99;73.37;99535.12;256634;1104;117434;-67
2021/07/04 04:28:46;;;;;;;12.78;9.13;;;;;;;17.13;73.09;99540.64;256717;1104;115328;-67
2021/07/04 04:33:50;;;;;;;16.60;10.70;;;;;;;17.23;73.22;99529.78;256931;1104;114817;-67
2021/07/04 04:38:54;;;;;;;12.65;9.45;;;;;;;17.33;73.31;99526.20;255044;1104;116030;-67
2021/07/04 04:43:57;;;;;;;12.85;9.88;;;;;;;17.43;73.09;99524.20;256833;1099;114968;-67
2021/07/04 04:49:02;;;;;;;16.93;11.18;;;;;;;17.53;72.94;99527.88;256161;1104;117781;-67
2021/07/04 04:54:08;;;;;;;23.50;11.73;;;;;;;17.57;72.98;99537.81;255328;1104;116087;-66
2021/07/04 04:59:12;;;;;;;26.20;12.38;;;;;;;17.62;72.63;99532.38;255288;1104;115817;-66
2021/07/04 05:04:15;;;;;;;22.83;13.90;;;;;;;17.66;72.38;99533.45;255500;1104;116582;-67
2021/07/04 05:09:20;;;;;;;25.53;14.35;;;;;;;17.67;72.50;99537.75;254147;1104;115719;-67
2021/07/04 05:14:23;;;;;;;18.45;14.00;;;;;;;17.70;72.64;99534.48;255834;1104;116117;-67
2021/07/04 05:19:27;;;;;;;17.05;11.73;;;;;;;17.70;72.64;99534.48;254747;1104;115654;-67
2021/07/04 05:24:31;;;;;;;19.35;12.73;;;;;;;17.77;72.55;99534.92;254077;1104;115934;-67
2021/07/04 05:29:35;;;;;;;25.38;14.88;;;;;;;17.87;72.58;99530.52;255050;1104;115456;-67
2021/07/04 05:34:38;;;;;;;25.68;14.63;;;;;;;18.24;72.79;99527.89;254529;1104;115369;-67
2021/07/04 05:39:42;;;;;;;28.33;15.33;;;;;;;18.68;72.19;99526.75;254468;1100;115433;-67
2021/07/04 05:44:46;;;;;;;25.00;14.83;;;;;;;18.83;71.92;99531.94;254226;1104;115247;-67
2021/07/04 05:49:49;;;;;;;19.33;13.13;;;;;;;19.04;71.71;99525.10;254138;1104;116041;-66
2021/07/04 05:54:53;;;;;;;30.15;15.88;;;;;;;19.63;71.19;99526.25;254416;1099;116265;-67
2021/07/04 05:59:57;;;;;;;17.60;13.23;;;;;;;19.87;71.03;99528.78;254902;1104;116136;-67
2021/07/04 06:05:01;;;;;;;26.53;13.58;;;;;;;19.87;70.87;99533.39;255602;1104;115403;-67
2021/07/04 06:10:05;;;;;;;21.60;14.03;;;;;;;19.78;70.32;99531.38;254611;1104;115443;-67
2021/07/04 06:15:09;;;;;;;22.00;14.30;;;;;;;19.66;70.17;99531.06;256486;1104;115318;-67
2021/07/04 06:20:14;;;;;;;20.37;14.73;;;;;;;19.54;70.31;99535.38;255291;1104;116238;-67
2021/07/04 06:25:17;;;;;;;16.10;14.13;;;;;;;19.47;70.65;99522.20;257118;1104;115143;-67
2021/07/04 06:30:21;;;;;;;16.47;14.00;;;;;;;19.50;70.27;99527.02;256918;1104;115480;-67
2021/07/04 06:35:24;;;;;;;16.88;11.58;;;;;;;19.59;70.67;99533.35;257216;1104;116800;-67
2021/07/04 06:40:27;;;;;;;14.83;11.90;;;;;;;19.61;70.26;99528.45;257259;1104;115153;-67
2021/07/04 06:45:30;;;;;;;17.78;11.98;;;;;;;19.65;70.35;99529.45;256698;1099;115342;-66
2021/07/04 06:50:32;;;;;;;16.55;12.30;;;;;;;19.77;70.38;99543.30;254680;1100;117279;-66
2021/07/04 06:55:37;;;;;;;13.50;11.80;;;;;;;19.91;70.38;99537.07;254776;1104;115673;-66
2021/07/04 07:00:40;;;;;;;11.85;10.68;;;;;;;20.27;70.32;99529.83;255484;1104;115903;-66
2021/07/04 07:05:44;;;;;;;13.68;10.60;;;;;;;20.48;69.95;99533.71;254581;1104;115834;-66
2021/07/04 07:10:49;;;;;;;20.05;11.95;;;;;;;20.73;70.00;99545.09;254265;1104;115882;-66
2021/07/04 07:15:52;;;;;;;16.68;11.45;;;;;;;20.92;70.10;99543.01;255535;1104;115783;-66
2021/07/04 07:20:56;;;;;;;14.20;10.70;;;;;;;21.09;69.48;99534.22;254493;1104;115838;-66
2021/07/04 07:26:01;;;;;;;12.88;9.85;;;;;;;21.49;69.20;99530.47;254020;1104;116176;-66
2021/07/04 07:31:04;;;;;;;9.03;8.13;;;;;;;22.16;68.26;99524.03;255584;1104;115954;-66
2021/07/04 07:36:07;;;;;;;8.00;7.20;;;;;;;22.69;67.43;99521.05;254366;1104;116349;-66
2021/07/04 07:41:11;;;;;;;11.40;7.88;;;;;;;23.04;66.86;99526.48;254775;1098;116109;-66
2021/07/04 07:46:15;;;;;;;9.25;8.15;;;;;;;23.13;66.20;99524.56;254776;1104;116251;-67
2021/07/04 07:51:20;;;;;;;8.98;6.88;;;;;;;23.50;66.07;99520.30;255472;1104;117331;-66
2021/07/04 07:56:23;;;;;;;9.55;8.00;;;;;;;24.15;65.79;99524.51;254566;1104;116484;-66
2021/07/04 08:01:27;;;;;;;7.73;6.90;;;;;;;24.52;64.11;99517.37;254270;1104;116093;-67
2021/07/04 08:06:30;;;;;;;9.38;7.18;;;;;;;24.37;64.19;99517.98;254544;1104;117272;-67
2021/07/04 08:11:34;;;;;;;8.08;7.38;;;;;;;24.18;63.32;99515.66;254331;1104;116845;-66
2021/07/04 08:16:38;;;;;;;7.55;6.58;;;;;;;23.97;63.60;99509.38;256039;1104;116204;-67
2021/07/04 08:21:42;;;;;;;8.97;7.47;;;;;;;23.71;63.07;99520.41;255141;1104;116143;-67
2021/07/04 08:26:45;;;;;;;11.95;8.70;;;;;;;23.43;63.32;99517.28;256485;1104;116075;-67
2021/07/04 08:31:48;;;;;;;6.60;5.95;;;;;;;23.27;63.55;99513.47;257301;1104;115872;-67
2021/07/04 08:36:52;;;;;;;8.58;7.68;;;;;;;23.21;63.46;99506.63;257252;1104;116669;-67
2021/07/04 08:41:55;;;;;;;8.90;7.93;;;;;;;23.20;63.20;99505.03;257291;1104;115485;-67
2021/07/04 08:46:59;;;;;;;8.33;7.53;;;;;;;23.48;63.22;99511.67;255640;1104;115768;-67
2021/07/04 08:52:03;;;;;;;10.30;7.15;;;;;;;23.70;63.01;99507.92;254456;1104;115677;-67
2021/07/04 08:57:09;;;;;;;8.60;7.70;;;;;;;23.77;62.55;99519.91;255419;1104;115099;-67
2021/07/04 09:02:14;;;;;;;8.23;6.70;;;;;;;23.71;62.37;99513.04;255816;1104;115460;-66
2021/07/04 09:07:25;;;;;;;9.88;8.40;;;;;;;23.72;62.47;99511.12;256126;1104;115521;-67
2021/07/04 09:12:53;;;;;;;8.20;7.40;;;;;;;23.67;61.83;99514.02;255103;1104;115228;-66
2021/07/04 09:18:01;;;;;;;9.20;7.43;;;;;;;23.69;62.40;99504.40;254695;1104;115915;-66
2021/07/04 09:23:05;;;;;;;8.50;7.75;;;;;;;23.79;61.95;99497.80;254918;1104;115228;-66
2021/07/04 09:28:13;;;;;;;8.60;7.80;;;;;;;24.06;62.14;99493.80;254893;1104;114898;-67
2021/07/04 09:33:23;;;;;;;8.83;8.03;;;;;;;24.13;61.62;99494.88;254804;1104;115637;-66
2021/07/04 09:38:34;;;;;;;8.50;7.70;;;;;;;23.94;61.02;99493.70;254986;1104;115287;-67
2021/07/04 09:43:42;;;;;;;7.95;7.20;;;;;;;23.90;61.21;99493.56;254358;1104;115717;-67
2021/07/04 09:48:51;;;;;;;8.85;7.98;;;;;;;23.99;60.94;99480.70;254192;1104;116087;-66
2021/07/04 09:54:00;;;;;;;8.63;7.70;;;;;;;24.07;60.73;99473.61;255263;1104;116088;-67
2021/07/04 09:59:06;;;;;;;8.85;7.08;;;;;;;24.82;60.83;99477.98;255812;1104;114684;-66
2021/07/04 10:04:36;;;;;;;9.85;8.35;;;;;;;25.57;59.87;99461.47;255328;1100;115954;-67
2021/07/04 10:09:40;;;;;;;18.45;8.95;;;;;;;26.25;58.92;99460.85;254591;1104;116221;-67
2021/07/04 10:14:43;;;;;;;8.48;7.78;;;;;;;26.41;58.45;99462.53;254798;1104;116297;-67
2021/07/04 10:19:48;;;;;;;8.13;7.43;;;;;;;26.69;57.75;99459.80;257092;1103;115847;-66
2021/07/04 10:24:53;;;;;;;10.58;8.25;;;;;;;27.08;56.29;99458.15;257122;1104;117697;-67
2021/07/04 10:29:58;;;;;;;9.08;8.18;;;;;;;27.23;56.16;99453.02;257173;1104;116567;-67
2021/07/04 10:35:08;;;;;;;8.67;7.80;;;;;;;27.50;55.46;99439.28;257039;1103;115496;-67
2021/07/04 10:40:18;;;;;;;7.93;7.15;;;;;;;27.92;54.88;99435.15;257316;1104;116174;-67
2021/07/04 10:45:30;;;;;;;7.43;6.85;;;;;;;28.27;54.23;99424.19;257440;1105;116863;-67
2021/07/04 10:50:34;;;;;;;7.18;6.55;;;;;;;28.48;53.45;99417.19;254870;1104;116470;-67
2021/07/04 10:55:38;;;;;;;8.57;7.80;;;;;;;28.01;52.81;99417.37;255323;1104;116058;-67
2021/07/04 11:00:42;;;;;;;9.25;8.30;;;;;;;27.86;52.93;99411.92;255736;1104;115920;-67
2021/07/04 11:05:46;;;;;;;10.18;8.68;;;;;;;27.62;52.67;99408.27;255484;1098;115159;-67
2021/07/04 11:10:50;;;;;;;9.13;7.73;;;;;;;27.41;52.15;99402.28;255144;1099;115823;-67
2021/07/04 11:16:07;;;;;;;7.97;6.97;;;;;;;27.77;52.46;99401.98;255578;1104;116158;-67
2021/07/04 11:21:22;;;;;;;7.45;6.68;;;;;;;28.00;52.53;99384.84;254582;1104;116546;-70
2021/07/04 11:26:26;;;;;;;9.20;8.07;;;;;;;27.98;51.28;99387.16;254367;1104;117206;-67
2021/07/04 11:31:32;;;;;;;49.00;10.10;;;;;;;27.64;51.47;99392.28;254391;1104;116661;-67
2021/07/04 11:36:41;;;;;;;9.27;7.30;;;;;;;27.51;51.21;99379.84;254773;1104;117358;-67
2021/07/04 11:41:50;;;;;;;8.08;7.33;;;;;;;27.49;51.53;99376.66;254731;1104;115841;-67
2021/07/04 11:46:54;;;;;;;7.90;7.23;;;;;;;27.98;51.05;99371.51;254161;1104;116049;-67
2021/07/04 11:52:00;;;;;;;6.58;5.78;;;;;;;28.52;50.68;99364.36;255180;1104;117084;-68
2021/07/04 12:02:32;;;;;;;8.03;6.28;;;;;;;28.43;48.90;99362.64;255009;1104;116254;-68
2021/07/04 12:07:36;;;;;;;8.13;7.40;;;;;;;28.11;48.68;99352.99;254539;1104;116101;-68
2021/07/04 12:12:40;;;;;;;9.00;8.20;;;;;;;27.81;49.68;99352.77;255031;1104;116389;-68
2021/07/04 12:17:47;;;;;;;8.85;6.20;;;;;;;27.56;49.23;99343.95;254802;1104;116791;-68
2021/07/04 12:22:57;;;;;;;6.85;6.00;;;;;;;27.64;49.03;99333.98;255555;1104;115928;-68
2021/07/04 12:28:06;;;;;;;9.10;6.23;;;;;;;27.33;49.03;99332.09;256559;1104;117280;-67
2021/07/04 12:33:14;;;;;;;6.60;5.95;;;;;;;26.98;49.82;99334.77;256630;1104;115708;-67
2021/07/04 12:38:30;;;;;;;6.45;5.93;;;;;;;26.73;50.34;99331.39;257101;1104;116132;-68
2021/07/04 12:43:39;;;;;;;6.75;6.15;;;;;;;26.38;50.47;99334.77;257069;1104;115279;-68
2021/07/04 12:48:45;;;;;;;7.35;6.65;;;;;;;26.01;50.72;99344.23;256035;1104;115801;-69
2021/07/04 12:53:50;;;;;;;8.55;7.08;;;;;;;25.57;51.93;99335.91;256618;1104;115594;-69
2021/07/04 12:59:01;;;;;;;10.45;7.25;;;;;;;25.14;52.78;99334.58;254891;1104;115840;-67
2021/07/04 13:04:10;;;;;;;7.38;6.78;;;;;;;24.74;53.24;99344.52;257208;1104;115987;-67
2021/07/04 13:09:16;;;;;;;7.68;6.88;;;;;;;24.65;53.93;99347.34;255530;1104;115761;-66
2021/07/04 13:14:31;;;;;;;7.28;6.78;;;;;;;24.50;54.32;99337.86;254389;1098;116099;-66
2021/07/04 13:19:35;;;;;;;8.43;7.73;;;;;;;24.33;55.28;99326.36;254425;1104;115618;-68
2021/07/04 13:24:47;;;;;;;8.40;7.35;;;;;;;24.28;55.99;99330.09;254243;1104;116607;-67
2021/07/04 13:29:54;;;;;;;7.20;6.60;;;;;;;24.42;56.55;99327.88;254523;1104;115645;-68
2021/07/04 13:34:57;;;;;;;8.93;7.33;;;;;;;24.44;56.77;99325.61;255070;1104;117228;-69
2021/07/04 13:40:03;;;;;;;7.33;6.80;;;;;;;24.53;57.31;99324.70;254219;1104;116442;-68
2021/07/04 13:45:32;;;;;;;7.43;6.73;;;;;;;24.53;57.31;99319.25;254061;1098;115618;-70
2021/07/04 13:50:37;;;;;;;7.50;6.83;;;;;;;24.52;57.44;99307.55;255347;1104;117648;-70
2021/07/04 13:55:40;;;;;;;8.38;7.63;;;;;;;24.50;57.96;99307.09;254119;1103;115527;-69
2021/07/04 14:00:47;;;;;;;7.73;6.87;;;;;;;24.55;57.63;99304.16;254985;1104;117011;-69
2021/07/04 14:05:50;;;;;;;8.58;7.78;;;;;;;24.57;58.13;99296.44;254849;1099;116451;-67
2021/07/04 14:10:53;;;;;;;8.60;7.90;;;;;;;24.60;58.25;99284.08;253988;1104;115691;-70
2021/07/04 14:15:57;;;;;;;7.63;6.95;;;;;;;24.62;58.08;99293.50;254242;1104;116752;-69
2021/07/04 14:21:00;;;;;;;8.60;7.80;;;;;;;24.43;57.60;99280.43;254965;1104;116025;-68
2021/07/04 14:26:04;;;;;;;8.18;7.38;;;;;;;24.34;58.10;99281.64;254615;1104;116287;-68
2021/07/04 14:31:07;;;;;;;9.05;7.25;;;;;;;24.35;58.16;99281.31;254658;1104;115662;-67
2021/07/04 14:36:11;;;;;;;6.65;6.13;;;;;;;24.38;57.39;99293.47;256997;1104;115736;-68
2021/07/04 14:41:14;;;;;;;6.43;5.83;;;;;;;24.59;57.14;99286.00;255192;1104;115994;-68
2021/07/04 14:46:18;;;;;;;6.75;6.18;;;;;;;24.92;56.57;99287.85;254511;1104;116527;-71
2021/07/04 14:51:22;;;;;;;4.73;4.38;;;;;;;25.24;56.00;99292.41;255102;1104;115860;-70
2021/07/04 14:56:27;;;;;;;7.30;6.60;;;;;;;25.44;55.92;99299.65;255601;1104;116060;-69
2021/07/04 15:01:32;;;;;;;6.15;5.75;;;;;;;25.46;55.67;99297.38;254645;1104;116439;-69
2021/07/04 15:06:36;;;;;;;6.90;6.30;;;;;;;25.53;55.36;99296.80;257251;1104;115787;-70
2021/07/04 15:11:39;;;;;;;6.23;5.43;;;;;;;25.56;54.71;99296.11;254532;1104;115787;-69
2021/07/04 15:16:41;;;;;;;6.83;6.33;;;;;;;25.71;54.50;99294.61;255592;1104;117057;-69
2021/07/04 15:21:45;;;;;;;6.45;5.95;;;;;;;25.78;54.58;99297.55;255055;1104;116249;-70
2021/07/04 15:26:48;;;;;;;6.60;6.10;;;;;;;25.96;53.86;99293.41;254023;1104;116386;-69
2021/07/04 15:31:52;;;;;;;8.45;6.58;;;;;;;26.12;53.71;99287.98;254690;1104;116466;-70
2021/07/04 15:36:56;;;;;;;6.00;5.60;;;;;;;26.11;53.26;99276.25;254372;1104;115597;-70
2021/07/04 15:42:01;;;;;;;6.55;6.05;;;;;;;26.28;53.51;99283.36;256016;1104;115256;-68
2021/07/04 15:47:11;;;;;;;6.25;5.65;;;;;;;26.30;52.94;99274.78;254252;1100;114846;-69
2021/07/04 15:52:24;;;;;;;6.38;5.88;;;;;;;26.41;53.01;99282.16;254925;1104;115285;-68
2021/07/04 15:57:36;;;;;;;5.65;5.25;;;;;;;26.53;52.48;99283.23;254520;1104;115344;-68
2021/07/04 16:02:45;;;;;;;6.60;6.00;;;;;;;26.59;52.31;99292.77;254283;1104;115885;-69
2021/07/04 16:07:56;;;;;;;5.68;5.28;;;;;;;26.39;52.30;99294.58;254150;1104;116772;-69
2021/07/04 16:13:07;;;;;;;6.97;6.30;;;;;;;25.89;52.61;99304.13;254564;1104;116139;-69
2021/07/04 16:18:11;;;;;;;;;;;;;;;25.44;53.21;99299.65;255700;1104;116596;-69
2021/07/04 16:23:16;;;;;;;6.60;5.88;;;;;;;24.95;53.99;99290.73;255720;1104;103094;-70
2021/07/04 16:28:20;;;;;;;5.28;4.78;;;;;;;24.50;54.63;99304.38;255258;1104;115996;-70
2021/07/04 16:33:24;;;;;;;7.45;6.73;;;;;;;24.16;55.66;99294.59;254696;1104;115396;-69
2021/07/04 16:38:27;;;;;;;5.63;5.13;;;;;;;23.88;56.02;99302.54;256798;1104;115928;-71
2021/07/04 16:43:31;;;;;;;5.83;5.30;;;;;;;23.73;55.95;99309.40;256704;1104;116087;-70
2021/07/04 16:48:37;;;;;;;5.93;5.25;;;;;;;23.62;56.59;99308.19;256265;1104;117064;-70
2021/07/04 16:53:48;;;;;;;6.13;5.53;;;;;;;23.55;57.27;99301.68;256317;1104;115180;-71
2021/07/04 16:58:52;;;;;;;7.58;5.43;;;;;;;23.43;57.13;99299.67;257304;1104;115280;-70
2021/07/04 17:03:57;;;;;;;7.60;5.50;;;;;;;23.26;57.63;99299.76;257320;1104;115014;-71
2021/07/04 17:09:01;;;;;;;6.18;5.58;;;;;;;23.15;57.89;99294.72;255818;1104;115885;-69
2021/07/04 17:14:04;;;;;;;9.68;6.23;;;;;;;23.14;58.59;99284.97;256138;1104;116125;-69
2021/07/04 17:19:08;;;;;;;8.25;6.25;;;;;;;23.07;58.26;99278.45;255413;1104;115684;-69
2021/07/04 17:24:15;;;;;;;8.08;5.90;;;;;;;22.99;58.57;99282.80;255580;1100;115817;-70
2021/07/04 17:29:18;;;;;;;6.27;5.77;;;;;;;22.94;58.82;99282.98;254290;1104;115315;-69
2021/07/04 17:34:22;;;;;;;7.77;5.97;;;;;;;22.89;59.04;99288.63;254563;1104;115289;-68
2021/07/04 17:39:25;;;;;;;6.73;6.03;;;;;;;22.78;59.19;99285.46;255059;1104;117018;-70
2021/07/04 17:44:28;;;;;;;6.48;5.88;;;;;;;22.69;59.45;99292.02;255371;1104;114644;-68
2021/07/04 17:49:32;;;;;;;5.95;4.90;;;;;;;22.54;59.53;99282.49;254728;1104;115052;-69
2021/07/04 17:54:37;;;;;;;5.38;4.98;;;;;;;22.43;59.72;99276.61;254411;1104;115586;-69
2021/07/04 17:59:45;;;;;;;5.25;4.78;;;;;;;22.28;59.95;99274.42;254770;1099;116372;-69
2021/07/04 18:04:49;;;;;;;;;;;;;;;22.14;60.19;99274.60;254214;1104;115558;-68
2021/07/04 18:09:53;;;;;;;8.45;4.38;;;;;;;21.98;60.58;99278.92;255675;1100;103074;-69
2021/07/04 18:14:57;;;;;;;6.10;4.85;;;;;;;21.87;60.88;99283.06;254798;1104;115839;-69
2021/07/04 18:20:09;;;;;;;5.43;4.43;;;;;;;21.78;61.01;99283.06;254696;1100;115480;-68
2021/07/04 18:25:15;;;;;;;6.65;5.28;;;;;;;21.63;61.39;99283.55;254143;1104;115746;-68
2021/07/04 18:30:22;;;;;;;5.25;4.85;;;;;;;21.38;61.70;99284.33;255316;1104;115650;-68
2021/07/04 18:35:27;;;;;;;5.40;4.90;;;;;;;21.28;62.35;99282.71;254685;1104;115544;-67
2021/07/04 18:40:31;;;;;;;6.55;5.50;;;;;;;21.21;62.48;99281.58;254638;1104;115246;-68
2021/07/04 18:45:35;;;;;;;6.43;5.13;;;;;;;21.10;62.65;99281.83;254960;1104;115650;-69
2021/07/04 18:50:39;;;;;;;5.60;5.10;;;;;;;21.00;62.98;99284.84;254465;1104;116171;-67
2021/07/04 18:55:45;;;;;;;5.80;4.60;;;;;;;20.90;63.27;99284.33;256326;1104;115372;-66
2021/07/04 19:00:48;;;;;;;6.98;5.48;;;;;;;20.81;63.50;99295.13;257117;1104;116439;-68
2021/07/04 19:05:53;;;;;;;12.33;5.45;;;;;;;20.74;63.66;99294.80;257259;1104;115362;-67
2021/07/04 19:10:57;;;;;;;6.93;6.33;;;;;;;20.62;63.88;99297.28;257109;1104;116009;-66
2021/07/04 19:16:02;;;;;;;5.47;4.93;;;;;;;20.48;63.83;99300.86;256283;1100;117010;-67
2021/07/04 19:21:06;;;;;;;6.58;5.85;;;;;;;20.42;64.77;99299.42;257302;1104;117158;-67
2021/07/04 19:26:12;;;;;;;8.80;5.38;;;;;;;20.42;64.84;99287.79;256667;1104;116536;-66
2021/07/04 19:31:16;;;;;;;7.05;6.13;;;;;;;20.41;64.97;99281.58;255437;1100;116638;-67
2021/07/04 19:36:19;;;;;;;8.08;6.35;;;;;;;20.34;65.22;99285.80;254600;1104;115521;-67
2021/07/04 19:41:23;;;;;;;6.98;5.73;;;;;;;20.30;65.53;99284.81;254963;1098;115799;-67
2021/07/04 19:46:27;;;;;;;6.80;6.25;;;;;;;20.29;65.90;99297.55;254925;1104;116546;-68
2021/07/04 19:51:31;;;;;;;10.43;6.83;;;;;;;20.23;66.27;99293.36;255190;1099;116750;-69
2021/07/04 19:56:35;;;;;;;13.63;8.05;;;;;;;20.18;66.58;99288.08;254295;1104;116255;-68
2021/07/04 20:01:39;;;;;;;8.50;6.93;;;;;;;20.15;66.43;99297.64;254305;1104;116147;-68
2021/07/04 20:06:44;;;;;;;8.45;6.58;;;;;;;20.13;66.78;99299.05;254264;1104;115633;-68
2021/07/04 20:11:48;;;;;;;7.68;6.63;;;;;;;19.97;67.14;99292.39;254949;1104;116501;-69
2021/07/04 20:16:51;;;;;;;8.20;6.30;;;;;;;19.90;66.95;99287.41;255150;1104;116006;-69
2021/07/04 20:21:55;;;;;;;7.30;6.23;;;;;;;19.84;67.86;99278.64;254087;1104;115240;-66
2021/07/04 20:26:59;;;;;;;7.50;6.77;;;;;;;19.86;67.93;99282.94;255575;1104;115500;-68
2021/07/04 20:32:05;;;;;;;7.95;7.10;;;;;;;19.80;67.99;99283.05;254372;1104;115381;-68
2021/07/04 20:37:09;;;;;;;22.73;10.08;;;;;;;19.80;68.40;99279.55;254413;1104;115509;-68
2021/07/04 20:42:14;;;;;;;13.00;8.93;;;;;;;19.76;68.18;99270.45;254726;1099;115253;-69
2021/07/04 20:47:18;;;;;;;11.70;9.28;;;;;;;19.65;68.21;99261.76;255712;1104;115009;-67
2021/07/04 20:52:22;;;;;;;12.05;9.33;;;;;;;19.45;68.25;99260.30;255506;1104;115748;-67
2021/07/04 20:57:26;;;;;;;10.55;9.53;;;;;;;19.40;68.77;99254.20;256891;1104;115238;-67
2021/07/04 21:02:30;;;;;;;13.88;9.58;;;;;;;19.40;69.11;99262.31;255597;1103;115675;-66
2021/07/04 21:07:33;;;;;;;9.33;8.43;;;;;;;19.49;69.58;99263.20;256982;1104;115730;-66
2021/07/04 21:12:36;;;;;;;10.93;9.27;;;;;;;19.55;69.19;99253.91;257417;1104;115102;-66
2021/07/04 21:17:39;;;;;;;11.38;8.68;;;;;;;19.50;69.07;99251.28;257084;1104;116157;-67
2021/07/04 21:22:48;;;;;;;9.30;7.68;;;;;;;19.32;69.24;99252.21;256730;1104;116526;-67
2021/07/04 21:27:52;;;;;;;;;;;;;;;19.15;69.31;99250.16;255323;1104;115057;-67
2021/07/04 21:32:56;;;;;;;9.03;8.23;;;;;;;19.04;69.35;99262.27;256746;1099;102982;-67
2021/07/04 21:38:01;;;;;;;9.65;8.60;;;;;;;18.98;69.68;99260.77;256238;1104;115182;-69
2021/07/04 21:43:04;;;;;;;8.90;8.07;;;;;;;19.01;70.01;99258.27;255359;1104;115497;-69
2021/07/04 21:48:08;;;;;;;10.25;8.53;;;;;;;18.98;69.63;99256.16;254806;1104;115318;-68
2021/07/04 21:53:12;;;;;;;12.03;9.43;;;;;;;18.89;69.80;99255.29;254395;1104;116219;-68
2021/07/04 21:58:15;;;;;;;9.15;8.25;;;;;;;18.80;69.94;99248.98;254260;1104;117504;-67
2021/07/04 22:03:19;;;;;;;8.25;7.55;;;;;;;18.77;70.08;99255.78;255378;1104;115790;-68
2021/07/04 22:08:21;;;;;;;9.03;8.17;;;;;;;18.74;70.33;99255.58;255319;1104;115696;-67
2021/07/04 22:13:26;;;;;;;8.68;7.63;;;;;;;18.60;69.59;99249.39;254068;1104;115702;-67
2021/07/04 22:18:29;;;;;;;9.73;8.73;;;;;;;18.38;69.41;99253.52;254773;1104;117126;-67
2021/07/04 22:23:34;;;;;;;9.08;8.18;;;;;;;18.27;70.20;99254.02;254837;1104;114943;-66
2021/07/04 22:28:37;;;;;;;11.33;9.80;;;;;;;18.17;70.08;99254.98;255394;1099;115177;-66
2021/07/04 22:33:41;;;;;;;9.03;8.13;;;;;;;18.09;70.10;99255.65;254510;1104;115777;-65
2021/07/04 22:38:45;;;;;;;9.90;8.75;;;;;;;17.94;69.96;99264.81;254212;1104;116040;-65
2021/07/04 22:43:48;;;;;;;9.65;8.65;;;;;;;17.63;69.41;99266.34;255386;1104;115424;-67
2021/07/04 22:48:51;;;;;;;14.45;7.58;;;;;;;17.30;69.57;99265.45;255642;1104;115647;-65
2021/07/04 22:53:55;;;;;;;10.00;8.58;;;;;;;17.28;70.55;99259.56;255438;1104;115898;-65
2021/07/04 22:58:58;;;;;;;14.55;8.95;;;;;;;17.14;70.40;99256.77;255155;1104;116756;-66
2021/07/04 23:04:02;;;;;;;11.48;7.70;;;;;;;17.00;70.61;99259.38;256020;1104;116119;-65
2021/07/04 23:09:07;;;;;;;9.75;7.95;;;;;;;16.79;70.51;99266.10;255265;1104;116620;-69
2021/07/04 23:14:09;;;;;;;10.63;7.13;;;;;;;16.63;70.88;99265.42;257324;1104;116073;-67
2021/07/04 23:19:12;;;;;;;8.63;7.73;;;;;;;16.67;71.34;99263.00;256790;1104;116982;-66